Time;durP1;ratioP1;P1;durP2;ratioP2;P2;SDS_P1;SDS_P2;PMS_P1;PMS_P2;Temp;Humidity;BMP_temperature;BMP_pressure;BME280_temperature;BME280_humidity;BME280_pressure;Samples;Min_cycle;Max_cycle;Signal;HPM_P1;HPM_P2
2022/01/08 00:00:53;;;;;;;4.70;1.65;;;;;;;4.96;100.00;99995.66;8362911;28;20043;-65
2022/01/08 00:04:54;;;;;;;5.35;1.75;;;;;;;4.99;99.51;100000.78;8369960;28;20052;-65
2022/01/08 00:08:54;;;;;;;5.13;1.50;;;;;;;5.04;98.78;99995.94;8351713;28;20494;-65
2022/01/08 00:12:56;;;;;;;3.67;1.25;;;;;;;5.06;98.44;99996.66;8347865;28;20508;-65
2022/01/08 00:16:58;;;;;;;3.83;1.20;;;;;;;5.09;97.79;100002.63;8351700;28;20058;-65
2022/01/08 00:20:58;;;;;;;7.55;1.33;;;;;;;5.12;97.73;100012.28;8360794;28;20036;-64
2022/01/08 00:24:59;;;;;;;2.78;1.15;;;;;;;5.09;97.92;100007.16;8360530;28;20124;-64
2022/01/08 00:28:59;;;;;;;4.60;1.15;;;;;;;5.00;98.97;100002.50;8372799;28;20056;-64
2022/01/08 00:33:00;;;;;;;5.72;1.23;;;;;;;5.00;99.23;100005.19;8361259;28;20037;-64
2022/01/08 00:37:00;;;;;;;5.85;1.38;;;;;;;4.95;99.69;100004.66;8370936;28;20036;-64
2022/01/08 00:41:01;;;;;;;4.15;1.42;;;;;;;4.93;100.00;100018.19;8395122;28;20373;-64
2022/01/08 00:45:03;;;;;;;6.95;1.70;;;;;;;4.90;100.00;100017.53;8369668;28;20037;-64
2022/01/08 00:49:03;;;;;;;4.45;1.23;;;;;;;4.88;100.00;100024.88;8361746;28;20068;-64
2022/01/08 00:53:04;;;;;;;3.25;1.20;;;;;;;4.83;100.00;100016.31;8359961;28;20571;-64
2022/01/08 00:57:04;;;;;;;3.53;1.30;;;;;;;4.82;100.00;100025.34;8358533;28;20063;-64
2022/01/08 01:01:05;;;;;;;6.13;1.45;;;;;;;4.74;100.00;100027.72;8356113;28;20040;-64
2022/01/08 01:05:07;;;;;;;4.78;1.58;;;;;;;4.77;100.00;100032.84;8359435;28;20049;-64
2022/01/08 01:09:07;;;;;;;5.53;1.50;;;;;;;4.78;100.00;100034.53;8359078;28;20033;-64
2022/01/08 01:13:08;;;;;;;8.23;2.58;;;;;;;4.82;100.00;100025.34;8362490;28;20506;-64
2022/01/08 01:17:08;;;;;;;7.25;1.38;;;;;;;4.83;100.00;100027.88;8359104;28;20040;-64
2022/01/08 01:21:09;;;;;;;6.80;1.47;;;;;;;4.83;100.00;100038.59;8352210;28;20535;-64
2022/01/08 01:25:13;;;;;;;9.23;1.83;;;;;;;4.77;99.49;100039.06;8324779;28;20273;-64
2022/01/08 01:29:29;;;;;;;8.07;1.45;;;;;;;4.72;99.73;100040.34;8372378;28;20044;-64
2022/01/08 01:42:39;;;;;;;10.93;2.22;;;;;;;4.42;100.00;100066.75;8398850;28;20407;-64
2022/01/08 01:47:06;;;;;;;4.40;2.17;;;;;;;4.29;100.00;100063.25;8398752;28;20036;-64
2022/01/08 01:50:56;;;;;;;8.50;2.50;;;;;;;4.24;100.00;100065.44;8348742;28;20053;-64
2022/01/08 01:54:56;;;;;;;8.70;2.20;;;;;;;4.09;100.00;100056.72;8356244;28;20359;-64
2022/01/08 01:58:56;;;;;;;7.68;2.65;;;;;;;4.06;100.00;100057.75;8324499;28;20056;-64
2022/01/08 02:02:57;;;;;;;14.63;2.90;;;;;;;4.05;100.00;100063.22;8331872;28;20095;-64
2022/01/08 02:06:57;;;;;;;11.00;3.50;;;;;;;3.98;100.00;100044.09;8331599;28;20034;-64
2022/01/08 02:10:58;;;;;;;7.05;3.05;;;;;;;3.92;100.00;100043.69;8343941;28;20047;-64
2022/01/08 02:14:58;;;;;;;6.32;2.55;;;;;;;3.93;100.00;100054.28;8340640;28;20382;-65
2022/01/08 02:18:58;;;;;;;16.08;3.55;;;;;;;3.84;100.00;100052.25;8364300;28;20041;-65
2022/01/08 02:22:59;;;;;;;9.45;2.65;;;;;;;3.77;100.00;100050.13;8364064;28;20052;-65
2022/01/08 02:26:59;;;;;;;7.80;2.78;;;;;;;3.68;100.00;100057.00;8363894;28;20025;-64
2022/01/08 02:31:00;;;;;;;4.90;2.40;;;;;;;3.67;100.00;100049.09;8363985;28;20114;-65
2022/01/08 02:35:00;;;;;;;6.47;3.10;;;;;;;3.67;100.00;100060.63;8363722;28;20041;-65
2022/01/08 02:39:01;;;;;;;6.30;2.63;;;;;;;3.67;100.00;100049.94;8379411;28;20092;-65
2022/01/08 02:43:04;;;;;;;10.68;3.47;;;;;;;3.61;100.00;100055.72;8340394;28;20213;-65
2022/01/08 02:47:04;;;;;;;9.95;2.95;;;;;;;3.60;100.00;100062.00;8329893;28;20069;-65
2022/01/08 02:51:05;;;;;;;12.60;3.25;;;;;;;3.55;100.00;100065.97;8349594;28;20040;-65
2022/01/08 02:55:06;;;;;;;9.15;3.20;;;;;;;3.49;100.00;100056.59;8363045;28;20119;-65
2022/01/08 02:59:07;;;;;;;13.02;4.05;;;;;;;3.49;100.00;100064.59;8363457;28;20090;-65
2022/01/08 03:03:07;;;;;;;7.80;3.60;;;;;;;3.54;100.00;100073.13;8362415;28;20118;-65
2022/01/08 03:07:08;;;;;;;7.50;3.65;;;;;;;3.52;100.00;100077.75;8362131;28;20087;-65
2022/01/08 03:11:08;;;;;;;18.40;4.03;;;;;;;3.53;100.00;100082.13;8362643;28;20029;-65
2022/01/08 03:19:22;;;;;;;11.48;5.75;;;;;;;3.50;100.00;100090.34;8426528;27;20167;-64
2022/01/08 03:23:24;;;;;;;16.67;5.43;;;;;;;3.47;100.00;100098.56;8421437;28;20040;-64
2022/01/08 03:27:24;;;;;;;27.60;8.80;;;;;;;3.55;100.00;100104.25;8424446;28;20426;-64
2022/01/08 03:31:26;;;;;;;23.08;10.25;;;;;;;3.68;100.00;100109.59;8382187;28;20041;-64
2022/01/08 03:35:27;;;;;;;21.13;9.93;;;;;;;3.65;100.00;100110.66;8367091;28;20123;-64
2022/01/08 03:39:27;;;;;;;33.47;14.00;;;;;;;3.57;100.00;100122.84;8388676;28;20032;-64
2022/01/08 03:43:27;;;;;;;30.33;14.95;;;;;;;3.51;100.00;100113.44;8389364;28;20060;-64
2022/01/08 03:51:31;;;;;;;40.75;16.90;;;;;;;3.44;100.00;100127.31;8384204;28;20392;-64
2022/01/08 03:55:32;;;;;;;46.53;19.10;;;;;;;3.49;100.00;100119.84;8359138;28;20037;-64
2022/01/08 03:59:32;;;;;;;36.58;17.92;;;;;;;3.52;100.00;100125.84;8348230;28;20041;-64
2022/01/08 04:03:33;;;;;;;45.17;19.45;;;;;;;3.49;100.00;100126.06;8338677;28;20107;-64
2022/01/08 04:07:33;;;;;;;57.10;20.70;;;;;;;3.35;100.00;100136.81;8322830;28;20049;-64
2022/01/08 04:11:34;;;;;;;45.17;19.15;;;;;;;3.24;100.00;100131.38;8322623;28;20107;-64
2022/01/08 04:15:37;;;;;;;42.70;20.70;;;;;;;3.24;100.00;100144.72;8362047;27;20033;-64
2022/01/08 04:19:37;;;;;;;49.63;21.67;;;;;;;3.23;100.00;100150.16;8377838;27;20037;-64
2022/01/08 04:23:38;;;;;;;45.55;21.25;;;;;;;3.25;100.00;100162.44;8358245;27;20074;-64
2022/01/08 04:27:38;;;;;;;52.80;21.92;;;;;;;3.32;100.00;100161.06;8396921;27;20117;-64
2022/01/08 04:31:39;;;;;;;50.10;21.30;;;;;;;3.26;100.00;100169.50;8399298;28;20059;-64
2022/01/08 04:35:39;;;;;;;56.20;23.25;;;;;;;3.29;100.00;100171.97;8397432;28;20037;-64
2022/01/08 04:39:40;;;;;;;52.63;21.73;;;;;;;3.30;100.00;100178.16;8366242;28;20068;-64
2022/01/08 04:43:43;;;;;;;51.08;23.13;;;;;;;3.27;100.00;100176.53;8364373;28;20462;-64
2022/01/08 04:47:44;;;;;;;48.80;22.25;;;;;;;3.24;100.00;100173.25;8365452;28;20041;-64
2022/01/08 04:51:44;;;;;;;48.30;19.40;;;;;;;3.28;100.00;100170.25;8365394;28;20100;-64
2022/01/08 04:55:46;;;;;;;42.42;19.75;;;;;;;3.32;100.00;100174.44;8385572;28;20066;-64
2022/01/08 04:59:46;;;;;;;45.17;19.23;;;;;;;3.38;100.00;100175.81;8399001;28;20404;-64
2022/01/08 05:03:47;;;;;;;49.10;20.73;;;;;;;3.38;100.00;100171.34;8397891;28;20104;-64
2022/01/08 05:07:47;;;;;;;45.35;20.20;;;;;;;3.38;100.00;100171.34;8398236;28;20040;-64
2022/01/08 05:11:48;;;;;;;45.17;19.85;;;;;;;3.30;100.00;100178.16;8351392;28;20353;-64
2022/01/08 05:15:48;;;;;;;48.92;20.30;;;;;;;3.34;100.00;100179.66;8357632;28;20037;-64
2022/01/08 05:19:50;;;;;;;47.17;19.92;;;;;;;3.25;100.00;100186.50;8351008;28;20136;-64
2022/01/08 05:23:52;;;;;;;40.10;20.00;;;;;;;3.16;100.00;100181.75;8333870;28;20033;-64
2022/01/08 05:27:53;;;;;;;53.05;20.35;;;;;;;3.15;100.00;100188.06;8363712;28;20102;-64
2022/01/08 05:31:53;;;;;;;47.05;20.30;;;;;;;3.14;100.00;100199.69;8397855;28;20098;-64
2022/01/08 05:35:54;;;;;;;48.53;19.13;;;;;;;3.18;100.00;100193.22;8394220;28;20397;-64
2022/01/08 05:39:55;;;;;;;45.90;20.35;;;;;;;3.13;100.00;100207.81;8363136;28;20036;-64
2022/01/08 05:43:55;;;;;;;42.92;19.23;;;;;;;3.07;100.00;100205.53;8363635;28;20032;-64
2022/01/08 05:47:55;;;;;;;52.72;19.73;;;;;;;3.16;100.00;100208.47;8362232;28;20039;-64
2022/01/08 05:51:56;;;;;;;39.15;18.15;;;;;;;3.18;100.00;100214.56;8350584;28;20060;-64
2022/01/08 05:55:56;;;;;;;44.05;18.33;;;;;;;3.23;100.00;100219.63;8359560;28;20431;-64
2022/01/08 05:59:57;;;;;;;38.10;17.63;;;;;;;3.20;100.00;100215.31;8351155;28;20563;-64
2022/01/08 06:03:57;;;;;;;37.60;16.33;;;;;;;3.22;100.00;100216.06;8349492;28;20059;-64
2022/01/08 06:07:57;;;;;;;46.05;17.25;;;;;;;3.30;100.00;100216.41;8331295;28;20030;-64
2022/01/08 06:11:58;;;;;;;43.17;17.17;;;;;;;3.26;100.00;100220.25;8330777;28;20022;-64
2022/01/08 06:15:59;;;;;;;32.65;15.50;;;;;;;3.24;100.00;100222.19;8341330;28;20045;-64
2022/01/08 06:19:59;;;;;;;33.33;14.95;;;;;;;3.21;100.00;100230.41;8351653;28;20059;-64
2022/01/08 06:24:00;;;;;;;33.92;14.23;;;;;;;3.19;100.00;100240.31;8331746;28;20038;-64
2022/01/08 06:28:00;;;;;;;34.33;13.30;;;;;;;3.20;100.00;100242.03;8325234;28;20037;-64
2022/01/08 06:32:00;;;;;;;36.15;14.23;;;;;;;3.17;100.00;100257.41;8346549;28;20033;-64
2022/01/08 06:36:01;;;;;;;36.10;15.43;;;;;;;3.18;100.00;100256.44;8362646;28;20090;-64
2022/01/08 06:40:01;;;;;;;35.85;15.35;;;;;;;3.16;100.00;100261.88;8361758;28;20025;-64
2022/01/08 06:44:02;;;;;;;39.80;15.45;;;;;;;3.13;100.00;100261.22;8360591;28;20037;-64
2022/01/08 06:48:03;;;;;;;32.35;15.10;;;;;;;3.15;100.00;100260.19;8359692;28;20552;-64
2022/01/08 06:52:03;;;;;;;37.30;14.07;;;;;;;3.12;100.00;100254.16;8360698;28;20037;-64
2022/01/08 06:56:04;;;;;;;33.97;15.63;;;;;;;3.05;100.00;100264.38;8345736;28;20056;-64
2022/01/08 07:00:05;;;;;;;32.83;15.05;;;;;;;3.03;100.00;100266.31;8361595;28;20508;-64
2022/01/08 07:04:06;;;;;;;34.38;15.55;;;;;;;3.18;100.00;100270.66;8339975;28;20045;-63
2022/01/08 07:08:06;;;;;;;33.05;14.93;;;;;;;3.19;100.00;100272.38;8351717;28;20033;-64
2022/01/08 07:12:07;;;;;;;44.97;17.13;;;;;;;3.19;100.00;100274.16;8328809;28;20069;-64
2022/01/08 07:16:08;;;;;;;39.42;16.85;;;;;;;3.15;100.00;100276.19;8347513;28;20099;-64
2022/01/08 07:20:09;;;;;;;36.22;16.08;;;;;;;3.01;100.00;100284.25;8373013;28;20040;-64
2022/01/08 07:24:09;;;;;;;48.60;18.92;;;;;;;2.96;100.00;100278.31;8394721;28;20103;-64
2022/01/08 07:28:09;;;;;;;46.30;18.13;;;;;;;2.94;100.00;100288.25;8375471;28;20033;-63
2022/01/08 07:32:10;;;;;;;50.13;18.08;;;;;;;2.93;100.00;100280.34;8361442;28;20029;-64
2022/01/08 07:36:10;;;;;;;55.88;19.85;;;;;;;3.00;100.00;100271.84;8360670;28;20068;-64
2022/01/08 07:40:13;;;;;;;43.70;16.92;;;;;;;3.23;100.00;100279.22;8352361;28;20094;-64
2022/01/08 07:44:13;;;;;;;42.38;16.98;;;;;;;3.34;100.00;100282.03;8349513;28;20052;-64
2022/01/08 07:48:14;;;;;;;41.30;16.63;;;;;;;3.46;100.00;100291.06;8327902;28;20034;-64
2022/01/08 07:52:14;;;;;;;40.33;15.65;;;;;;;3.53;100.00;100277.19;8386161;28;20553;-64
2022/01/08 07:56:15;;;;;;;45.45;16.58;;;;;;;3.57;100.00;100286.69;8393492;28;20375;-64
2022/01/08 08:00:16;;;;;;;44.72;15.48;;;;;;;3.68;100.00;100294.88;8393891;28;20021;-64
2022/01/08 08:04:16;;;;;;;38.20;13.90;;;;;;;3.69;100.00;100293.91;8350771;28;22177;-64
2022/01/08 08:08:18;;;;;;;39.60;13.88;;;;;;;3.72;100.00;100287.50;8342965;28;20045;-64
2022/01/08 08:12:18;;;;;;;32.67;13.65;;;;;;;3.78;100.00;100279.91;8356209;28;20029;-64
2022/01/08 08:16:20;;;;;;;41.17;14.32;;;;;;;3.95;100.00;100284.13;8360578;28;20062;-64
2022/01/08 08:20:20;;;;;;;31.30;13.27;;;;;;;3.97;100.00;100282.22;8379566;28;20045;-64
2022/01/08 08:24:20;;;;;;;33.05;13.63;;;;;;;4.06;100.00;100292.28;8370052;28;20497;-64
2022/01/08 08:28:21;;;;;;;25.88;10.73;;;;;;;4.13;100.00;100293.56;8347335;28;20041;-64
2022/01/08 08:32:21;;;;;;;36.63;13.00;;;;;;;4.20;100.00;100289.50;8352265;28;20041;-64
2022/01/08 08:36:22;;;;;;;37.47;12.68;;;;;;;4.37;100.00;100281.16;8363357;28;20044;-64
2022/01/08 08:40:22;;;;;;;30.23;11.35;;;;;;;4.48;99.41;100283.09;8365436;28;20044;-64
2022/01/08 08:44:23;;;;;;;28.05;11.40;;;;;;;4.59;98.24;100280.47;8363366;28;20052;-64
2022/01/08 08:48:23;;;;;;;33.72;11.15;;;;;;;4.52;98.17;100269.38;8342599;28;20135;-64
2022/01/08 08:52:24;;;;;;;22.98;10.52;;;;;;;4.50;98.90;100273.97;8336389;28;20041;-64
2022/01/08 08:56:24;;;;;;;24.88;9.85;;;;;;;4.87;97.56;100270.38;8341108;28;20041;-64
2022/01/08 09:00:25;;;;;;;28.80;10.90;;;;;;;5.78;92.13;100264.41;8341773;28;20040;-64
2022/01/08 09:04:26;;;;;;;22.38;9.50;;;;;;;5.44;91.41;100259.88;8352477;28;20043;-64
2022/01/08 09:08:26;;;;;;;24.75;9.18;;;;;;;4.86;93.91;100267.81;8352819;28;20515;-64
2022/01/08 09:12:27;;;;;;;23.13;9.07;;;;;;;4.65;96.33;100266.66;8349463;28;20040;-64
2022/01/08 09:16:27;;;;;;;26.08;9.07;;;;;;;4.65;97.22;100275.56;8350023;28;20285;-64
2022/01/08 09:20:29;;;;;;;18.83;8.88;;;;;;;4.96;95.85;100269.72;8355368;28;20136;-64
2022/01/08 09:24:30;;;;;;;18.73;8.23;;;;;;;5.19;93.17;100266.19;8349007;28;20033;-64
2022/01/08 09:28:30;;;;;;;25.92;8.70;;;;;;;5.19;93.22;100268.88;8348746;28;20040;-64
2022/01/08 09:32:31;;;;;;;20.15;6.88;;;;;;;5.09;92.08;100269.69;8339967;28;20737;-64
2022/01/08 09:36:32;;;;;;;15.63;6.57;;;;;;;4.98;92.19;100269.59;8350143;28;20595;-64
2022/01/08 09:40:32;;;;;;;18.25;6.47;;;;;;;4.93;92.47;100258.34;8339164;28;20072;-64
2022/01/08 09:44:33;;;;;;;17.35;6.57;;;;;;;4.88;92.97;100247.13;8331404;28;20329;-64
2022/01/08 09:48:34;;;;;;;13.40;6.75;;;;;;;4.91;93.82;100252.28;8339437;28;20029;-64
2022/01/08 09:52:36;;;;;;;15.88;6.72;;;;;;;4.90;94.45;100247.84;8333971;28;20344;-64
2022/01/08 09:56:36;;;;;;;16.55;7.30;;;;;;;4.95;94.32;100235.88;8343145;28;20041;-64
2022/01/08 10:00:37;;;;;;;14.52;6.88;;;;;;;5.00;93.40;100232.84;8338893;28;20463;-64
2022/01/08 10:04:38;;;;;;;16.45;5.72;;;;;;;4.96;93.59;100223.31;8328880;28;20049;-64
2022/01/08 10:08:43;;;;;;;11.77;5.28;;;;;;;4.97;93.21;100217.00;8344295;28;20044;-64
2022/01/08 10:17:17;;;;;;;12.95;5.00;;;;;;;5.16;92.80;100198.59;8409902;27;20643;-65
2022/01/08 10:21:22;;;;;;;11.43;4.57;;;;;;;5.26;91.25;100196.94;8393162;27;20133;-64
2022/01/08 10:25:23;;;;;;;8.77;4.72;;;;;;;5.31;91.36;100184.88;8404298;28;20044;-64
2022/01/08 10:29:23;;;;;;;8.05;4.40;;;;;;;5.40;90.17;100183.34;8388839;27;20057;-64
2022/01/08 10:33:24;;;;;;;10.77;4.80;;;;;;;5.44;89.80;100168.75;8384753;28;20692;-64
2022/01/08 10:37:24;;;;;;;9.32;4.43;;;;;;;5.57;86.84;100164.13;8384521;28;20118;-64
2022/01/08 10:41:26;;;;;;;7.68;3.50;;;;;;;5.73;87.05;100151.25;8380321;28;20074;-64
2022/01/08 10:45:33;;;;;;;12.55;3.90;;;;;;;5.83;85.61;100136.22;8384799;28;20545;-65
2022/01/08 10:49:39;;;;;;;12.23;3.55;;;;;;;5.84;84.18;100129.84;8407970;27;21065;-65
2022/01/08 10:54:03;;;;;;;7.95;3.75;;;;;;;5.88;84.33;100117.91;8402858;27;20078;-64
2022/01/08 10:58:03;;;;;;;7.97;3.35;;;;;;;6.17;83.69;100119.16;8366861;28;20049;-64
2022/01/08 11:02:07;;;;;;;7.25;3.28;;;;;;;6.27;81.75;100112.06;8360911;27;20053;-64
2022/01/08 11:06:07;;;;;;;9.88;3.30;;;;;;;6.34;81.29;100097.16;8368366;27;20110;-65
2022/01/08 11:10:16;;;;;;;6.55;3.30;;;;;;;6.36;82.14;100088.97;8353117;28;20037;-64
2022/01/08 11:14:34;;;;;;;6.80;2.80;;;;;;;6.26;81.42;100078.16;8376382;28;20040;-64
2022/01/08 11:18:35;;;;;;;8.77;2.83;;;;;;;6.28;81.00;100068.13;8398778;27;20044;-65
2022/01/08 11:22:39;;;;;;;8.27;3.05;;;;;;;6.56;80.55;100054.13;8397669;27;20051;-64
2022/01/08 11:26:41;;;;;;;5.82;2.85;;;;;;;6.41;79.49;100033.94;8373766;28;20065;-64
2022/01/08 11:30:45;;;;;;;9.70;2.75;;;;;;;6.26;79.77;100032.53;8374688;28;20083;-64
2022/01/08 11:34:46;;;;;;;10.60;3.93;;;;;;;6.24;80.56;100031.78;8375182;28;20782;-64
2022/01/08 11:38:47;;;;;;;7.88;2.78;;;;;;;6.23;78.83;100023.84;8376096;28;20385;-64
2022/01/08 11:42:47;;;;;;;9.40;4.07;;;;;;;6.14;80.57;100016.56;8370942;28;20040;-65
2022/01/08 11:46:49;;;;;;;10.30;3.00;;;;;;;6.17;79.74;100005.56;8375402;28;20248;-65
2022/01/08 11:50:53;;;;;;;6.25;2.70;;;;;;;6.12;80.01;99999.72;8368005;28;20140;-64
2022/01/08 11:54:53;;;;;;;5.55;2.20;;;;;;;6.10;80.40;99991.78;8376469;28;20060;-64
2022/01/08 11:59:11;;;;;;;4.82;2.33;;;;;;;6.10;80.20;99975.69;8377918;28;20073;-64
2022/01/08 12:03:22;;;;;;;6.28;2.50;;;;;;;6.09;81.13;99963.25;8377234;28;20106;-64
2022/01/08 12:07:32;;;;;;;9.02;3.38;;;;;;;6.15;80.96;99957.41;8363249;28;20087;-64
2022/01/08 12:11:54;;;;;;;10.65;2.90;;;;;;;6.31;79.86;99960.50;8367780;28;20132;-64
2022/01/08 12:15:54;;;;;;;7.70;2.65;;;;;;;6.32;79.66;99927.34;8358723;28;20566;-65
2022/01/08 12:19:57;;;;;;;7.00;3.30;;;;;;;6.29;79.89;99922.22;8366952;28;20762;-64
2022/01/08 12:24:00;;;;;;;10.10;3.15;;;;;;;6.16;80.43;99910.78;8359437;28;20098;-64
2022/01/08 12:28:01;;;;;;;4.45;2.60;;;;;;;6.19;80.19;99894.44;8360125;28;20068;-64
2022/01/08 12:32:32;;;;;;;9.45;3.75;;;;;;;6.07;80.83;99884.72;8367013;28;20041;-65
2022/01/08 12:36:33;;;;;;;8.02;3.17;;;;;;;6.12;80.79;99890.56;8371468;28;20044;-64
2022/01/08 12:40:41;;;;;;;8.52;2.85;;;;;;;6.12;81.25;99887.88;8363231;28;20039;-64
2022/01/08 12:44:41;;;;;;;9.63;3.05;;;;;;;6.04;81.23;99885.00;8361272;28;20041;-64
2022/01/08 12:49:16;;;;;;;5.68;3.38;;;;;;;5.96;81.76;99860.63;8368718;28;20064;-64
2022/01/08 12:57:30;;;;;;;8.40;2.95;;;;;;;5.98;82.52;99842.59;8371976;27;20410;-64
2022/01/08 13:01:30;;;;;;;8.43;2.80;;;;;;;6.00;82.42;99835.25;8356010;28;20044;-64
2022/01/08 13:05:33;;;;;;;9.43;3.63;;;;;;;6.07;83.11;99820.31;8368577;28;20117;-64
2022/01/08 13:09:33;;;;;;;7.90;2.65;;;;;;;6.16;81.96;99814.19;8363126;28;20142;-64
2022/01/08 13:18:20;;;;;;;6.55;2.58;;;;;;;6.21;81.96;99795.88;8319181;27;20400;-64
2022/01/08 13:22:20;;;;;;;6.50;2.42;;;;;;;6.20;83.85;99799.56;8302605;28;20049;-64
2022/01/08 13:26:32;;;;;;;3.53;2.08;;;;;;;5.98;84.89;99784.41;8304845;28;20058;-64
2022/01/08 13:30:33;;;;;;;4.75;2.08;;;;;;;5.87;86.55;99764.84;8314841;28;20037;-64
2022/01/08 13:34:37;;;;;;;2.33;1.35;;;;;;;5.56;87.27;99749.59;8318750;28;20048;-64
2022/01/08 13:38:40;;;;;;;4.30;1.42;;;;;;;5.34;89.39;99733.59;8308633;28;20095;-64
2022/01/08 13:42:44;;;;;;;5.45;2.53;;;;;;;5.15;91.21;99722.66;8303832;28;20041;-64
2022/01/08 13:46:45;;;;;;;4.30;1.90;;;;;;;5.00;92.25;99697.19;8304585;28;20452;-64
2022/01/08 13:50:53;;;;;;;4.15;2.80;;;;;;;4.88;93.51;99685.63;8305921;28;20121;-64
2022/01/08 13:55:15;;;;;;;6.95;2.83;;;;;;;4.92;94.60;99678.19;8303699;28;20038;-64
2022/01/08 13:59:17;;;;;;;6.60;3.17;;;;;;;4.98;95.70;99656.25;8305341;28;20046;-64
2022/01/08 14:03:41;;;;;;;4.35;1.73;;;;;;;5.17;94.15;99649.25;8310548;28;20042;-64
2022/01/08 14:07:42;;;;;;;2.85;1.70;;;;;;;5.38;91.87;99633.22;8302839;28;20129;-65
2022/01/08 14:11:46;;;;;;;5.78;1.92;;;;;;;5.49;90.36;99614.41;8307084;28;20049;-65
2022/01/08 14:15:53;;;;;;;2.25;1.25;;;;;;;5.59;89.73;99605.44;8301204;28;20134;-65
2022/01/08 14:19:58;;;;;;;1.60;0.93;;;;;;;5.65;89.02;99593.34;8296800;28;20080;-63
2022/01/08 14:24:11;;;;;;;;;;;;;;;5.72;87.31;99568.53;8298937;28;20048;-63
2022/01/08 14:28:14;;;;;;;;;;;;;;;5.83;87.26;99567.63;8284433;28;19937;-63
2022/01/08 14:32:17;;;;;;;2.20;0.70;;;;;;;5.78;86.20;99546.56;8265197;28;19917;-63
2022/01/08 14:36:17;;;;;;;1.05;0.75;;;;;;;5.90;85.58;99509.78;8269218;28;20513;-63
2022/01/08 14:40:23;;;;;;;2.58;0.55;;;;;;;5.93;86.38;99539.03;8269677;28;20661;-63
2022/01/08 14:44:24;;;;;;;1.15;0.77;;;;;;;5.99;85.44;99519.69;8271889;28;20116;-64
2022/01/08 14:48:28;;;;;;;1.38;0.50;;;;;;;6.03;85.16;99502.34;8274217;28;20033;-64
2022/01/08 14:52:28;;;;;;;1.13;0.57;;;;;;;6.07;85.73;99487.66;8278498;28;20587;-64
2022/01/08 14:56:28;;;;;;;2.22;1.23;;;;;;;6.04;85.93;99482.59;8282263;28;20492;-64
2022/01/08 15:00:32;;;;;;;1.83;0.68;;;;;;;6.05;86.61;99476.22;8262898;28;20030;-64
2022/01/08 15:04:32;;;;;;;1.38;0.82;;;;;;;5.97;87.34;99449.25;8278622;28;20429;-63
2022/01/08 15:08:33;;;;;;;0.52;0.50;;;;;;;6.01;86.95;99442.63;8264415;28;20038;-64
2022/01/08 15:12:34;;;;;;;1.88;0.60;;;;;;;6.05;86.55;99409.16;8257911;28;20049;-63
2022/01/08 15:16:35;;;;;;;1.70;0.90;;;;;;;6.07;87.03;99407.19;8269461;28;20049;-63
2022/01/08 15:20:35;;;;;;;4.10;0.70;;;;;;;6.08;87.11;99398.16;8277390;28;20045;-63
2022/01/08 15:24:36;;;;;;;0.80;0.60;;;;;;;6.10;86.81;99385.44;8274844;28;20058;-64
2022/01/08 15:28:36;;;;;;;2.22;0.82;;;;;;;6.09;86.82;99386.44;8274336;28;20034;-63
2022/01/08 15:32:37;;;;;;;1.52;0.60;;;;;;;6.12;86.97;99363.84;8261509;28;20144;-63
2022/01/08 15:36:37;;;;;;;1.58;0.90;;;;;;;6.06;87.48;99359.88;8270172;28;20471;-63
2022/01/08 15:40:38;;;;;;;0.85;0.70;;;;;;;5.98;88.46;99349.84;8273746;28;20529;-63
2022/01/08 15:44:39;;;;;;;2.28;0.80;;;;;;;6.07;88.15;99342.78;8269759;28;20026;-63
2022/01/08 15:48:40;;;;;;;1.02;0.70;;;;;;;6.22;87.82;99327.13;8266387;28;20489;-63
2022/01/08 15:52:41;;;;;;;1.10;0.73;;;;;;;6.27;86.92;99303.38;8271661;28;20117;-63
2022/01/08 15:56:42;;;;;;;2.25;0.60;;;;;;;6.30;87.09;99290.53;8270246;28;20042;-63
2022/01/08 16:00:43;;;;;;;0.75;0.60;;;;;;;6.19;87.71;99271.91;8272541;28;20050;-63
2022/01/08 16:04:44;;;;;;;0.68;0.68;;;;;;;6.18;87.89;99259.50;8269559;28;20446;-63
2022/01/08 16:08:45;;;;;;;1.65;0.80;;;;;;;6.21;87.57;99256.53;8274593;28;20581;-63
2022/01/08 16:12:45;;;;;;;0.82;0.55;;;;;;;6.11;89.05;99236.06;8259671;28;20073;-63
2022/01/08 16:16:46;;;;;;;0.60;0.50;;;;;;;6.09;89.15;99222.78;8268052;28;20046;-63
2022/01/08 16:20:47;;;;;;;1.05;0.65;;;;;;;6.12;88.93;99210.91;8270420;28;20441;-64
2022/01/08 16:24:47;;;;;;;2.33;0.80;;;;;;;6.15;89.24;99198.06;8272294;28;20037;-64
2022/01/08 16:28:48;;;;;;;1.48;1.00;;;;;;;6.07;89.89;99187.22;8254230;28;20460;-63
2022/01/08 16:32:48;;;;;;;1.02;0.70;;;;;;;6.03;90.83;99163.53;8264140;28;20464;-63
2022/01/08 16:36:49;;;;;;;4.03;1.55;;;;;;;6.03;90.52;99142.91;8272417;28;20038;-63
2022/01/08 16:40:50;;;;;;;0.88;0.77;;;;;;;6.07;90.73;99132.72;8232419;28;20513;-63
2022/01/08 16:44:50;;;;;;;2.47;1.00;;;;;;;5.98;91.05;99129.91;8233050;28;20347;-63
2022/01/08 16:48:50;;;;;;;0.80;0.80;;;;;;;6.02;91.10;99117.06;8274721;28;20046;-63
2022/01/08 16:52:51;;;;;;;2.03;0.93;;;;;;;6.03;91.13;99113.38;8275186;28;20038;-63
2022/01/08 16:56:51;;;;;;;2.08;0.85;;;;;;;6.15;90.23;99088.06;8273416;28;20085;-63
2022/01/08 17:00:52;;;;;;;4.32;1.90;;;;;;;6.11;90.51;99069.75;8266184;28;20042;-63
2022/01/08 17:04:52;;;;;;;4.63;2.47;;;;;;;6.12;90.56;99060.69;8271515;28;21181;-63
2022/01/08 17:08:53;;;;;;;1.58;0.73;;;;;;;6.14;90.47;99050.66;8259193;28;20034;-63
2022/01/08 17:12:54;;;;;;;2.05;0.68;;;;;;;6.20;90.73;99048.25;8270465;28;20080;-63
2022/01/08 17:16:55;;;;;;;0.93;0.65;;;;;;;6.21;90.61;99024.91;8268166;28;20080;-63
2022/01/08 17:20:56;;;;;;;1.48;0.90;;;;;;;6.15;90.83;99004.91;8258439;28;20050;-63
2022/01/08 17:24:56;;;;;;;2.95;0.90;;;;;;;6.13;90.31;98988.09;8261554;28;20069;-63
2022/01/08 17:28:56;;;;;;;0.70;0.50;;;;;;;6.19;90.21;98979.47;8273644;28;20069;-63
2022/01/08 17:32:58;;;;;;;0.90;0.70;;;;;;;6.15;90.04;98969.19;8273885;28;20120;-63
2022/01/08 17:36:58;;;;;;;0.70;0.55;;;;;;;6.24;90.31;98963.75;8266554;28;20046;-63
2022/01/08 17:40:58;;;;;;;0.80;0.70;;;;;;;6.28;90.61;98937.50;8260761;28;20057;-63
2022/01/08 17:44:59;;;;;;;1.08;0.80;;;;;;;6.28;90.66;98922.22;8267374;28;20041;-63
2022/01/08 17:48:59;;;;;;;0.50;0.40;;;;;;;6.24;90.73;98914.63;8271519;28;20077;-63
2022/01/08 17:53:00;;;;;;;2.67;1.58;;;;;;;6.37;90.56;98904.38;8266464;28;20050;-63
2022/01/08 17:57:01;;;;;;;0.90;0.55;;;;;;;6.35;90.42;98885.75;8234421;28;20038;-63
2022/01/08 18:01:03;;;;;;;0.98;0.40;;;;;;;6.58;89.49;98862.78;8274803;28;20483;-63
2022/01/08 18:05:05;;;;;;;0.50;0.30;;;;;;;6.73;88.10;98852.31;8270499;28;20038;-63
2022/01/08 18:09:05;;;;;;;1.10;0.68;;;;;;;6.70;87.49;98853.47;8281081;28;20103;-63
2022/01/08 18:13:06;;;;;;;0.50;0.40;;;;;;;6.72;87.87;98835.38;8263496;28;20034;-63
2022/01/08 18:17:06;;;;;;;0.50;0.45;;;;;;;6.72;87.54;98834.50;8275371;28;20054;-63
2022/01/08 18:21:07;;;;;;;0.45;0.35;;;;;;;6.67;87.77;98813.50;8279089;28;20068;-63
2022/01/08 18:25:10;;;;;;;0.20;0.20;;;;;;;6.65;88.09;98785.97;8279866;28;20429;-63
2022/01/08 18:29:10;;;;;;;0.30;0.30;;;;;;;6.68;87.42;98788.34;8273172;28;20062;-63
2022/01/08 18:33:11;;;;;;;1.10;0.50;;;;;;;6.65;87.76;98780.59;8279925;28;20037;-63
2022/01/08 18:37:12;;;;;;;1.55;0.55;;;;;;;6.55;88.46;98763.75;8277011;28;20052;-63
2022/01/08 18:41:13;;;;;;;1.10;0.80;;;;;;;6.43;89.07;98761.50;8269415;28;20037;-63
2022/01/08 18:45:13;;;;;;;1.48;0.98;;;;;;;6.42;89.15;98735.66;8278095;28;20092;-63
2022/01/08 18:49:14;;;;;;;0.73;0.50;;;;;;;6.40;89.08;98727.75;8277002;28;20505;-63
2022/01/08 18:53:15;;;;;;;0.70;0.50;;;;;;;6.49;89.13;98694.59;8255982;28;20528;-63
2022/01/08 18:57:15;;;;;;;0.70;0.50;;;;;;;6.38;89.41;98702.94;8276397;28;20058;-63
2022/01/08 19:01:15;;;;;;;0.50;0.40;;;;;;;6.43;89.48;98673.78;8270011;28;20971;-63
2022/01/08 19:05:16;;;;;;;1.90;0.85;;;;;;;6.47;89.52;98659.06;8261958;28;20054;-63
2022/01/08 19:09:19;;;;;;;1.00;0.60;;;;;;;6.43;89.91;98652.31;8267661;28;20129;-63
2022/01/08 19:13:19;;;;;;;0.95;0.60;;;;;;;6.50;89.97;98649.84;8259214;28;20046;-63
2022/01/08 19:17:20;;;;;;;1.02;0.60;;;;;;;6.46;90.15;98624.31;8265602;28;20554;-63
2022/01/08 19:21:20;;;;;;;1.02;0.68;;;;;;;6.51;89.70;98606.72;8271628;28;20050;-63